createdAt,value
2022-10-05T00:00:24.558Z,101638.15
2022-10-05T00:03:16.745Z,101642.30
2022-10-05T00:05:49.832Z,101646.97
2022-10-05T00:08:24.450Z,101645.53
2022-10-05T00:10:56.742Z,101651.70
2022-10-05T00:13:30.849Z,101654.24
2022-10-05T00:16:14.313Z,101652.87
2022-10-05T00:18:50.138Z,101656.46
2022-10-05T00:21:27.746Z,101658.78
2022-10-05T00:24:02.141Z,101656.95
2022-10-05T00:26:35.707Z,101655.27
2022-10-05T00:29:22.549Z,101653.64
2022-10-05T00:31:54.848Z,101653.86
2022-10-05T00:34:27.190Z,101654.39
2022-10-05T00:36:59.665Z,101662.20
2022-10-05T00:39:32.168Z,101658.67
2022-10-05T00:42:18.656Z,101662.85
2022-10-05T00:44:55.828Z,101663.98
2022-10-05T00:47:45.021Z,101668.77
2022-10-05T00:50:46.012Z,101668.42
2022-10-05T00:53:31.149Z,101663.73
2022-10-05T00:56:08.669Z,101655.98
2022-10-05T00:58:52.658Z,101650.50
2022-10-05T01:01:33.374Z,101645.67
2022-10-05T01:04:14.172Z,101646.13
2022-10-05T01:06:56.501Z,101652.95
2022-10-05T01:09:36.062Z,101652.65
2022-10-05T01:12:17.238Z,101661.94
2022-10-05T01:15:02.386Z,101673.59
2022-10-05T01:17:42.128Z,101682.07
2022-10-05T01:20:32.643Z,101679.88
2022-10-05T01:23:46.619Z,101679.27
2022-10-05T01:26:46.848Z,101679.98
2022-10-05T01:29:24.044Z,101684.04
2022-10-05T01:32:03.323Z,101685.30
2022-10-05T01:34:41.503Z,101691.09
2022-10-05T01:37:20.368Z,101699.09
2022-10-05T01:40:02.048Z,101699.14
2022-10-05T01:42:47.528Z,101701.21
2022-10-05T01:45:26.243Z,101703.30
2022-10-05T01:48:05.793Z,101706.27
2022-10-05T01:50:48.729Z,101711.08
2022-10-05T01:53:30.415Z,101719.80
2022-10-05T01:56:13.232Z,101724.45
2022-10-05T01:58:55.628Z,101730.88
2022-10-05T02:01:37.049Z,101727.14
2022-10-05T02:04:35.571Z,101735.95
2022-10-05T02:07:15.248Z,101740.79
2022-10-05T02:09:52.182Z,101740.34
2022-10-05T02:12:28.985Z,101741.15
2022-10-05T02:15:09.560Z,101745.94
2022-10-05T02:17:47.264Z,101751.34
2022-10-05T02:20:25.353Z,101756.73
2022-10-05T02:23:01.829Z,101763.07
2022-10-05T02:25:37.905Z,101767.92
2022-10-05T02:28:15.909Z,101777.83
2022-10-05T02:30:53.200Z,101783.48
2022-10-05T02:33:30.785Z,101785.96
2022-10-05T02:36:11.672Z,101790.75
2022-10-05T02:38:54.633Z,101791.50
2022-10-05T02:41:36.095Z,101790.02
2022-10-05T02:44:20.903Z,101790.09
2022-10-05T02:47:00.963Z,101789.13
2022-10-05T02:49:40.708Z,101790.45
2022-10-05T02:52:19.340Z,101798.20
2022-10-05T02:55:03.483Z,101801.56
2022-10-05T02:57:40.659Z,101800.35
2022-10-05T03:00:18.459Z,101800.46
2022-10-05T03:02:58.440Z,101800.83
2022-10-05T03:05:35.012Z,101801.50
2022-10-05T03:08:16.478Z,101804.77
2022-10-05T03:10:58.854Z,101809.70
2022-10-05T03:13:40.665Z,101808.85
2022-10-05T03:16:29.397Z,101815.03
2022-10-05T03:19:15.176Z,101817.77
2022-10-05T03:21:56.029Z,101824.50
2022-10-05T03:24:46.197Z,101833.12
2022-10-05T03:27:33.303Z,101836.96
2022-10-05T03:30:11.195Z,101842.73
2022-10-05T03:32:52.481Z,101843.53
2022-10-05T03:35:29.396Z,101846.20
2022-10-05T03:38:10.836Z,101844.40
2022-10-05T03:40:51.928Z,101846.95
2022-10-05T03:43:40.976Z,101850.13
2022-10-05T03:46:20.884Z,101849.64
2022-10-05T03:48:58.446Z,101853.58
2022-10-05T03:51:36.540Z,101855.08
2022-10-05T03:54:16.670Z,101862.95
2022-10-05T03:56:55.093Z,101865.36
2022-10-05T03:59:32.854Z,101865.48
2022-10-05T04:02:07.546Z,101871.59
2022-10-05T04:04:43.566Z,101876.34
2022-10-05T04:07:33.352Z,101876.14
2022-10-05T04:10:09.020Z,101874.70
2022-10-05T04:12:45.478Z,101879.27
2022-10-05T04:15:25.319Z,101875.47
2022-10-05T04:18:04.885Z,101878.17
2022-10-05T04:20:44.503Z,101880.17
2022-10-05T04:23:27.334Z,101890.02
2022-10-05T04:26:05.736Z,101895.06
2022-10-05T04:28:47.494Z,101900.55
2022-10-05T04:31:32.035Z,101899.27
2022-10-05T04:34:15.435Z,101908.56
2022-10-05T04:36:56.516Z,101915.06
2022-10-05T04:39:39.000Z,101922.80
2022-10-05T04:42:22.527Z,101932.84
2022-10-05T04:45:15.620Z,101936.30
2022-10-05T04:48:17.922Z,101942.96
2022-10-05T04:51:01.030Z,101945.98
2022-10-05T04:53:41.851Z,101941.77
2022-10-05T04:56:17.532Z,101939.08
2022-10-05T04:59:11.622Z,101936.32
2022-10-05T05:02:01.359Z,101938.48
2022-10-05T05:04:52.288Z,101933.58
2022-10-05T05:07:36.458Z,101937.13
2022-10-05T05:10:45.058Z,101937.86
2022-10-05T05:13:34.620Z,101940.59
2022-10-05T05:16:12.983Z,101941.27
2022-10-05T05:19:06.542Z,101947.38
2022-10-05T05:21:49.844Z,101945.77
2022-10-05T05:24:34.029Z,101947.10
2022-10-05T05:27:31.787Z,101943.21
2022-10-05T05:30:10.249Z,101944.27
2022-10-05T05:32:54.605Z,101947.34
2022-10-05T05:35:45.534Z,101944.33
2022-10-05T05:38:32.132Z,101945.38
2022-10-05T05:41:11.710Z,101949.16
2022-10-05T05:44:09.756Z,101947.41
2022-10-05T05:47:02.960Z,101946.89
2022-10-05T05:49:45.329Z,101953.53
2022-10-05T05:52:23.338Z,101960.10
2022-10-05T05:55:02.401Z,101964.00
2022-10-05T05:57:40.388Z,101971.83
2022-10-05T06:00:21.964Z,101980.30
2022-10-05T06:03:02.363Z,101987.21
2022-10-05T06:05:39.623Z,101994.05
2022-10-05T06:08:18.154Z,101995.41
2022-10-05T06:10:55.064Z,101994.80
2022-10-05T06:13:34.353Z,102000.52
2022-10-05T06:16:18.809Z,101995.14
2022-10-05T06:19:11.783Z,101997.95
2022-10-05T06:21:48.826Z,102003.90
2022-10-05T06:24:27.041Z,102007.22
2022-10-05T06:27:15.499Z,102005.88
2022-10-05T06:30:03.473Z,102007.85
2022-10-05T06:32:46.676Z,102006.88
2022-10-05T06:35:27.241Z,102006.73
2022-10-05T06:38:29.715Z,102006.65
2022-10-05T06:41:14.483Z,102010.94
2022-10-05T06:44:00.479Z,102016.17
2022-10-05T06:46:37.693Z,102014.52
2022-10-05T06:49:19.731Z,102013.77
2022-10-05T06:51:57.540Z,102009.25
2022-10-05T06:54:57.335Z,102008.92
2022-10-05T06:57:46.644Z,102011.27
2022-10-05T07:00:22.688Z,102010.57
2022-10-05T07:03:02.047Z,102009.20
2022-10-05T07:06:04.599Z,102012.04
2022-10-05T07:09:00.262Z,102014.55
2022-10-05T07:11:54.293Z,102018.63
2022-10-05T07:14:37.435Z,102019.23
2022-10-05T07:17:27.131Z,102019.13
2022-10-05T07:20:10.667Z,102024.15
2022-10-05T07:22:56.800Z,102024.81
2022-10-05T07:25:36.077Z,102026.20
2022-10-05T07:28:11.622Z,102024.80
2022-10-05T07:30:48.538Z,102024.23
2022-10-05T07:33:28.285Z,102020.38
2022-10-05T07:36:23.548Z,102022.00
2022-10-05T07:39:02.255Z,102020.88
2022-10-05T07:41:43.801Z,102028.00
2022-10-05T07:44:23.992Z,102031.98
2022-10-05T07:47:00.153Z,102034.61
2022-10-05T07:49:42.987Z,102033.34
2022-10-05T07:52:21.603Z,102033.11
2022-10-05T07:55:03.706Z,102031.84
2022-10-05T07:57:47.255Z,102038.80
2022-10-05T08:00:22.520Z,102043.79
2022-10-05T08:02:59.281Z,102048.53
2022-10-05T08:05:34.272Z,102045.88
2022-10-05T08:08:19.797Z,102049.77
2022-10-05T08:10:58.327Z,102054.02
2022-10-05T08:13:36.155Z,102051.60
2022-10-05T08:16:14.761Z,102053.70
2022-10-05T08:18:56.628Z,102050.48
2022-10-05T08:21:35.473Z,102057.92
2022-10-05T08:24:14.868Z,102057.45
2022-10-05T08:26:56.343Z,102059.77
2022-10-05T08:29:33.013Z,102061.65
2022-10-05T08:32:12.484Z,102065.43
2022-10-05T08:34:51.336Z,102063.82
2022-10-05T08:37:27.436Z,102058.16
2022-10-05T08:40:24.596Z,102061.54
2022-10-05T08:43:08.517Z,102066.73
2022-10-05T08:46:04.057Z,102066.16
2022-10-05T08:48:57.671Z,102067.97
2022-10-05T08:51:48.039Z,102066.83
2022-10-05T08:54:37.330Z,102069.94
2022-10-05T08:57:40.241Z,102070.30
2022-10-05T09:00:21.398Z,102074.26
2022-10-05T09:03:32.144Z,102076.70
2022-10-05T09:06:34.803Z,102084.89
2022-10-05T09:09:37.786Z,102080.46
2022-10-05T09:12:35.458Z,102083.94
2022-10-05T09:15:26.505Z,102079.21
2022-10-05T09:18:46.727Z,102079.38
2022-10-05T09:21:33.283Z,102083.45
2022-10-05T09:24:24.245Z,102083.96
2022-10-05T09:27:04.724Z,102081.63
2022-10-05T09:30:05.913Z,102085.20
2022-10-05T09:33:27.121Z,102082.02
2022-10-05T09:36:46.952Z,102082.20
2022-10-05T09:39:36.769Z,102081.13
2022-10-05T09:42:34.153Z,102082.15
2022-10-05T09:45:29.848Z,102082.98
2022-10-05T09:48:34.727Z,102088.41
2022-10-05T09:51:27.037Z,102085.31
2022-10-05T09:54:37.756Z,102084.59
2022-10-05T09:57:29.508Z,102082.73
2022-10-05T10:00:29.524Z,102079.13
2022-10-05T10:03:47.659Z,102076.19
2022-10-05T10:06:37.051Z,102066.75
2022-10-05T10:09:25.417Z,102067.60
2022-10-05T10:12:25.000Z,102063.48
2022-10-05T10:15:28.345Z,102057.21
2022-10-05T10:18:17.276Z,102052.09
2022-10-05T10:21:06.964Z,102048.59
2022-10-05T10:23:59.216Z,102045.31
2022-10-05T10:27:10.608Z,102048.08
2022-10-05T10:30:00.138Z,102045.74
2022-10-05T10:32:57.013Z,102040.62
2022-10-05T10:35:39.087Z,102037.25
2022-10-05T10:38:34.597Z,102030.72
2022-10-05T10:41:39.036Z,102025.13
2022-10-05T10:44:54.909Z,102018.45
2022-10-05T10:48:01.226Z,102012.36
2022-10-05T10:51:12.906Z,102012.22
2022-10-05T10:54:18.353Z,102009.69
2022-10-05T10:57:03.175Z,102007.77
2022-10-05T11:00:05.893Z,102006.92
2022-10-05T11:03:02.912Z,102004.00
2022-10-05T11:06:24.024Z,102006.86
2022-10-05T11:09:35.198Z,102000.77
2022-10-05T11:12:46.304Z,102003.84
2022-10-05T11:15:46.828Z,102011.61
2022-10-05T11:18:25.205Z,102011.40
2022-10-05T11:21:18.579Z,102016.42
2022-10-05T11:24:19.042Z,102017.86
2022-10-05T11:27:10.214Z,102016.94
2022-10-05T11:30:17.974Z,102019.27
2022-10-05T11:33:26.352Z,102018.10
2022-10-05T11:36:20.957Z,102022.09
2022-10-05T11:39:30.436Z,102018.06
2022-10-05T11:42:25.084Z,102015.27
2022-10-05T11:45:26.230Z,102006.89
2022-10-05T11:48:18.143Z,102011.20
2022-10-05T11:51:05.616Z,102012.17
2022-10-05T11:53:42.141Z,102000.75
2022-10-05T11:56:24.159Z,101988.31
2022-10-05T11:59:03.103Z,101983.20
2022-10-05T12:01:43.985Z,101979.05
2022-10-05T12:04:28.966Z,101976.15
2022-10-05T12:07:14.057Z,101969.61
2022-10-05T12:10:17.360Z,101967.58
2022-10-05T12:13:02.119Z,101968.59
2022-10-05T12:15:43.293Z,101966.77
2022-10-05T12:18:22.414Z,101969.02
2022-10-05T12:21:00.529Z,101970.56
2022-10-05T12:23:38.791Z,101977.36
2022-10-05T12:26:16.224Z,101976.05
2022-10-05T12:28:52.658Z,101975.32
2022-10-05T12:31:32.830Z,101977.27
2022-10-05T12:34:14.714Z,101975.42
2022-10-05T12:37:04.001Z,101969.45
2022-10-05T12:39:46.337Z,101972.17
2022-10-05T12:42:28.801Z,101970.85
2022-10-05T12:45:16.574Z,101971.94
2022-10-05T12:48:05.908Z,101975.64
2022-10-05T12:50:46.591Z,101970.90
2022-10-05T12:53:30.423Z,101972.55
2022-10-05T12:56:11.184Z,101965.46
2022-10-05T12:58:55.431Z,101971.50
2022-10-05T13:01:36.958Z,101970.04
2022-10-05T13:04:23.393Z,101965.70
2022-10-05T13:07:15.072Z,101962.16
2022-10-05T13:10:00.133Z,101962.08
2022-10-05T13:12:44.162Z,101959.98
2022-10-05T13:15:28.025Z,101961.67
2022-10-05T13:18:16.253Z,101955.50
2022-10-05T13:20:58.036Z,101949.59
2022-10-05T13:23:42.413Z,101946.59
2022-10-05T13:26:19.209Z,101943.16
2022-10-05T13:28:59.633Z,101940.80
2022-10-05T13:31:37.162Z,101934.27
2022-10-05T13:34:24.885Z,101927.94
2022-10-05T13:37:07.194Z,101928.54
2022-10-05T13:40:02.280Z,101923.96
2022-10-05T13:42:41.414Z,101926.02
2022-10-05T13:45:18.985Z,101929.83
2022-10-05T13:48:11.753Z,101931.33
2022-10-05T13:50:52.837Z,101926.69
2022-10-05T13:53:33.334Z,101929.35
2022-10-05T13:56:17.836Z,101924.46
2022-10-05T13:59:05.072Z,101933.23
2022-10-05T14:01:45.655Z,101933.30
2022-10-05T14:04:24.779Z,101935.41
2022-10-05T14:06:57.284Z,101929.42
2022-10-05T14:09:36.072Z,101927.73
2022-10-05T14:12:20.932Z,101930.69
2022-10-05T14:14:55.760Z,101933.42
2022-10-05T14:17:45.397Z,101931.32
2022-10-05T14:20:25.633Z,101927.34
2022-10-05T14:23:07.156Z,101924.42
2022-10-05T14:25:54.124Z,101924.26
2022-10-05T14:28:29.984Z,101930.89
2022-10-05T14:31:01.806Z,101930.79
2022-10-05T14:33:36.771Z,101928.71
2022-10-05T14:36:17.437Z,101924.48
2022-10-05T14:39:00.749Z,101926.96
2022-10-05T14:41:37.904Z,101924.64
2022-10-05T14:47:22.726Z,101921.45
2022-10-05T14:50:16.171Z,101919.94
2022-10-05T14:53:01.229Z,101918.15
2022-10-05T14:55:50.542Z,101916.33
2022-10-05T14:58:45.083Z,101922.52
2022-10-05T15:01:26.469Z,101919.65
2022-10-05T15:04:12.476Z,101920.33
2022-10-05T15:06:55.437Z,101914.50
2022-10-05T15:09:53.464Z,101911.77
2022-10-05T15:12:33.624Z,101915.48
2022-10-05T15:15:18.987Z,101920.14
2022-10-05T15:17:56.697Z,101917.52
2022-10-05T15:20:36.948Z,101918.69
2022-10-05T15:23:24.622Z,101920.06
2022-10-05T15:26:07.705Z,101921.04
2022-10-05T15:28:48.479Z,101927.98
2022-10-05T15:31:31.996Z,101931.80
2022-10-05T15:34:09.473Z,101936.11
2022-10-05T15:36:49.643Z,101934.88
2022-10-05T15:39:32.917Z,101935.92
2022-10-05T15:42:11.330Z,101939.23
2022-10-05T15:45:01.804Z,101942.13
2022-10-05T15:47:53.220Z,101942.80
2022-10-05T15:50:29.818Z,101941.98
2022-10-05T15:53:09.728Z,101940.10
2022-10-05T15:55:48.663Z,101937.86
2022-10-05T15:58:41.332Z,101944.17
2022-10-05T16:01:17.705Z,101945.21
2022-10-05T16:03:55.049Z,101948.54
2022-10-05T16:07:05.821Z,101944.58
2022-10-05T16:09:56.360Z,101947.44
2022-10-05T16:12:46.507Z,101949.47
2022-10-05T16:15:35.899Z,101955.13
2022-10-05T16:18:32.684Z,101954.74
2022-10-05T16:21:14.888Z,101967.57
2022-10-05T16:24:06.590Z,101972.94
2022-10-05T16:26:52.624Z,101971.92
2022-10-05T16:29:37.412Z,101974.41
2022-10-05T16:32:15.294Z,101973.41
2022-10-05T16:35:02.445Z,101974.27
2022-10-05T16:37:44.539Z,101977.28
2022-10-05T16:40:26.655Z,101976.21
2022-10-05T16:43:10.983Z,101981.92
2022-10-05T16:45:54.619Z,101980.73
2022-10-05T16:48:30.822Z,101984.88
2022-10-05T16:51:21.791Z,101983.27
2022-10-05T16:54:04.216Z,101985.80
2022-10-05T16:56:42.412Z,101989.64
2022-10-05T16:59:40.214Z,101990.13
2022-10-05T17:02:24.620Z,101996.15
2022-10-05T17:05:05.761Z,101993.83
2022-10-05T17:08:00.218Z,101996.98
2022-10-05T17:11:04.220Z,101998.67
2022-10-05T17:14:01.708Z,101995.90
2022-10-05T17:16:43.694Z,101999.42
2022-10-05T17:19:34.571Z,102009.40
2022-10-05T17:22:13.525Z,102006.16
2022-10-05T17:24:58.786Z,102005.75
2022-10-05T17:27:36.563Z,102009.98
2022-10-05T17:30:40.159Z,102012.06
2022-10-05T17:33:31.219Z,102010.20
2022-10-05T17:36:20.211Z,102013.49
2022-10-05T17:39:12.290Z,102013.20
2022-10-05T17:41:45.682Z,102014.71
2022-10-05T17:44:30.892Z,102020.16
2022-10-05T17:47:04.967Z,102019.58
2022-10-05T17:50:29.894Z,102023.00
2022-10-05T17:53:48.984Z,102025.75
2022-10-05T17:56:21.805Z,102033.63
2022-10-05T17:59:02.227Z,102033.64
2022-10-05T18:01:37.460Z,102038.57
2022-10-05T18:04:39.004Z,102038.68
2022-10-05T18:07:27.780Z,102039.40
2022-10-05T18:10:23.045Z,102040.20
2022-10-05T18:13:21.026Z,102037.83
2022-10-05T18:15:56.495Z,102036.61
2022-10-05T18:18:58.341Z,102037.27
2022-10-05T18:21:40.738Z,102036.33
2022-10-05T18:24:34.622Z,102037.81
2022-10-05T18:27:34.349Z,102041.96
2022-10-05T18:30:18.711Z,102042.53
2022-10-05T18:33:36.207Z,102045.77
2022-10-05T18:36:13.387Z,102044.36
2022-10-05T18:38:58.444Z,102044.48
2022-10-05T18:41:45.815Z,102048.59
2022-10-05T18:44:35.873Z,102046.90
2022-10-05T18:47:19.308Z,102048.03
2022-10-05T18:50:12.893Z,102049.98
2022-10-05T18:52:56.413Z,102048.43
2022-10-05T18:55:36.865Z,102049.96
2022-10-05T18:58:27.596Z,102049.10
2022-10-05T19:01:32.594Z,102050.42
2022-10-05T19:04:17.277Z,102044.82
2022-10-05T19:06:58.651Z,102049.91
2022-10-05T19:09:49.155Z,102051.77
2022-10-05T19:12:31.209Z,102047.48
2022-10-05T19:15:12.038Z,102053.17
2022-10-05T19:18:05.109Z,102053.41
2022-10-05T19:20:42.807Z,102055.28
2022-10-05T19:23:41.421Z,102057.19
2022-10-05T19:26:20.184Z,102060.72
2022-10-05T19:29:03.033Z,102060.11
2022-10-05T19:31:42.389Z,102059.27
2022-10-05T19:34:26.671Z,102059.58
2022-10-05T19:37:08.196Z,102058.52
2022-10-05T19:39:50.908Z,102066.69
2022-10-05T19:42:50.926Z,102065.08
2022-10-05T19:45:27.747Z,102065.59
2022-10-05T19:48:15.320Z,102069.06
2022-10-05T19:50:57.547Z,102068.19
2022-10-05T19:53:32.570Z,102068.21
2022-10-05T19:56:25.781Z,102071.87
2022-10-05T19:58:59.753Z,102078.54
2022-10-05T20:01:35.542Z,102077.00
2022-10-05T20:04:09.549Z,102080.77
2022-10-05T20:06:42.312Z,102080.96
2022-10-05T20:09:24.959Z,102079.09
2022-10-05T20:12:00.961Z,102078.05
2022-10-05T20:14:59.209Z,102076.05
2022-10-05T20:17:49.543Z,102079.60
2022-10-05T20:20:32.039Z,102085.15
2022-10-05T20:23:25.568Z,102081.48
2022-10-05T20:26:15.347Z,102086.55
2022-10-05T20:28:47.930Z,102081.24
2022-10-05T20:31:20.635Z,102079.27
2022-10-05T20:33:52.975Z,102076.00
2022-10-05T20:36:25.139Z,102079.48
2022-10-05T20:38:58.792Z,102078.92
2022-10-05T20:41:30.953Z,102076.39
2022-10-05T20:44:03.339Z,102078.71
2022-10-05T20:46:35.669Z,102078.65
2022-10-05T20:49:09.723Z,102077.48
2022-10-05T20:51:42.125Z,102076.73
2022-10-05T20:54:19.073Z,102075.53
2022-10-05T20:56:51.671Z,102073.41
2022-10-05T20:59:24.208Z,102068.84
2022-10-05T21:01:58.261Z,102067.52
2022-10-05T21:04:40.799Z,102067.44
2022-10-05T21:07:13.647Z,102060.84
2022-10-05T21:09:46.740Z,102059.89
2022-10-05T21:12:19.026Z,102060.99
2022-10-05T21:14:52.918Z,102058.26
2022-10-05T21:17:25.132Z,102058.27
2022-10-05T21:19:57.637Z,102062.06
2022-10-05T21:22:29.800Z,102063.63
2022-10-05T21:25:02.580Z,102060.16
2022-10-05T21:27:34.952Z,102054.16
2022-10-05T21:30:08.766Z,102052.75
2022-10-05T21:32:44.448Z,102054.17
2022-10-05T21:35:17.168Z,102050.30
2022-10-05T21:37:49.451Z,102046.05
2022-10-05T21:40:21.617Z,102046.04
2022-10-05T21:42:53.865Z,102042.71
2022-10-05T21:45:26.103Z,102034.86
2022-10-05T21:47:59.062Z,102035.25
2022-10-05T21:50:31.429Z,102031.84
2022-10-05T21:53:04.910Z,102032.95
2022-10-05T21:55:40.767Z,102034.39
2022-10-05T21:58:12.830Z,102038.52
2022-10-05T22:00:45.073Z,102037.08
2022-10-05T22:03:17.376Z,102036.27
2022-10-05T22:05:49.577Z,102031.27
2022-10-05T22:08:26.319Z,102034.06
2022-10-05T22:10:58.952Z,102037.69
2022-10-05T22:13:43.159Z,102034.89
2022-10-05T22:16:16.351Z,102032.02
2022-10-05T22:18:49.217Z,102030.36
2022-10-05T22:21:22.440Z,102033.64
2022-10-05T22:23:54.576Z,102031.96
2022-10-05T22:26:27.381Z,102028.47
2022-10-05T22:29:00.371Z,102026.46
2022-10-05T22:31:32.767Z,102024.00
2022-10-05T22:34:05.271Z,102021.20
2022-10-05T22:36:38.552Z,102014.75
2022-10-05T22:39:11.071Z,102018.46
2022-10-05T22:41:43.265Z,102016.42
2022-10-05T22:44:15.486Z,102017.52
2022-10-05T22:46:47.708Z,102016.58
2022-10-05T22:49:19.995Z,102012.65
2022-10-05T22:51:52.440Z,102009.88
2022-10-05T22:54:29.335Z,102013.76
2022-10-05T22:57:02.747Z,102013.08
2022-10-05T22:59:34.983Z,102014.77
2022-10-05T23:02:07.266Z,102016.21
2022-10-05T23:04:39.583Z,102019.19
2022-10-05T23:07:11.864Z,102019.30
2022-10-05T23:09:44.062Z,102023.48
2022-10-05T23:12:16.250Z,102020.71
2022-10-05T23:14:48.415Z,102016.73
2022-10-05T23:17:23.839Z,102014.15
2022-10-05T23:19:56.433Z,102015.21
2022-10-05T23:22:28.653Z,102009.75
2022-10-05T23:25:00.812Z,102011.65
2022-10-05T23:27:39.003Z,102011.95
2022-10-05T23:30:13.080Z,102004.19
2022-10-05T23:32:46.031Z,102001.23
2022-10-05T23:35:19.843Z,101998.67
2022-10-05T23:37:51.997Z,101993.17
2022-10-05T23:40:24.140Z,101989.08
2022-10-05T23:42:56.529Z,101996.78
2022-10-05T23:45:28.708Z,101999.69
2022-10-05T23:48:00.867Z,101999.06
2022-10-05T23:50:33.103Z,101998.05
2022-10-05T23:53:05.468Z,101996.00
2022-10-05T23:55:37.732Z,101997.86
2022-10-05T23:58:09.991Z,101993.46
